sensor_id;sensor_type;location;lat;lon;timestamp;temperature;humidity
52965;DHT22;42923;53.220;6.528;2023-06-24T00:01:15;14.90;99.90
52965;DHT22;42923;53.220;6.528;2023-06-24T00:03:41;14.80;99.90
52965;DHT22;42923;53.220;6.528;2023-06-24T00:06:12;14.80;99.90
52965;DHT22;42923;53.220;6.528;2023-06-24T00:08:44;14.70;99.90
52965;DHT22;42923;53.220;6.528;2023-06-24T00:11:10;14.70;99.90
52965;DHT22;42923;53.220;6.528;2023-06-24T00:13:36;14.70;99.90
52965;DHT22;42923;53.220;6.528;2023-06-24T00:16:03;14.70;99.90
52965;DHT22;42923;53.220;6.528;2023-06-24T00:18:28;14.70;99.90
52965;DHT22;42923;53.220;6.528;2023-06-24T00:20:55;14.70;99.90
52965;DHT22;42923;53.220;6.528;2023-06-24T00:23:23;14.70;99.90
52965;DHT22;42923;53.220;6.528;2023-06-24T00:25:53;14.70;99.90
52965;DHT22;42923;53.220;6.528;2023-06-24T00:28:20;14.70;99.90
52965;DHT22;42923;53.220;6.528;2023-06-24T00:30:47;14.70;99.90
52965;DHT22;42923;53.220;6.528;2023-06-24T00:33:13;14.70;99.90
52965;DHT22;42923;53.220;6.528;2023-06-24T00:35:40;14.70;99.90
52965;DHT22;42923;53.220;6.528;2023-06-24T00:38:07;14.70;99.90
52965;DHT22;42923;53.220;6.528;2023-06-24T00:40:33;14.60;99.90
52965;DHT22;42923;53.220;6.528;2023-06-24T00:43:00;14.60;99.90
52965;DHT22;42923;53.220;6.528;2023-06-24T00:45:28;14.60;99.90
52965;DHT22;42923;53.220;6.528;2023-06-24T00:47:55;14.60;99.90
52965;DHT22;42923;53.220;6.528;2023-06-24T00:50:22;14.60;99.90
52965;DHT22;42923;53.220;6.528;2023-06-24T00:52:48;14.60;99.90
52965;DHT22;42923;53.220;6.528;2023-06-24T00:55:17;14.60;99.90
52965;DHT22;42923;53.220;6.528;2023-06-24T00:57:44;14.50;99.90
52965;DHT22;42923;53.220;6.528;2023-06-24T01:00:11;14.60;99.90
52965;DHT22;42923;53.220;6.528;2023-06-24T01:02:40;14.40;99.90
52965;DHT22;42923;53.220;6.528;2023-06-24T01:05:09;14.40;99.90
52965;DHT22;42923;53.220;6.528;2023-06-24T01:07:37;14.40;99.90
52965;DHT22;42923;53.220;6.528;2023-06-24T01:10:04;14.40;99.90
52965;DHT22;42923;53.220;6.528;2023-06-24T01:12:38;14.40;99.90
52965;DHT22;42923;53.220;6.528;2023-06-24T01:15:06;14.40;99.90
52965;DHT22;42923;53.220;6.528;2023-06-24T01:22:52;14.30;99.90
52965;DHT22;42923;53.220;6.528;2023-06-24T01:31:33;14.30;99.90
52965;DHT22;42923;53.220;6.528;2023-06-24T01:42:46;14.40;99.90
52965;DHT22;42923;53.220;6.528;2023-06-24T01:45:24;14.40;99.90
52965;DHT22;42923;53.220;6.528;2023-06-24T01:50:35;14.50;99.90
52965;DHT22;42923;53.220;6.528;2023-06-24T01:53:05;14.50;99.90
52965;DHT22;42923;53.220;6.528;2023-06-24T01:55:33;14.60;99.90
52965;DHT22;42923;53.220;6.528;2023-06-24T01:58:02;14.60;99.90
52965;DHT22;42923;53.220;6.528;2023-06-24T02:00:29;14.60;99.90
52965;DHT22;42923;53.220;6.528;2023-06-24T02:02:55;14.70;99.90
52965;DHT22;42923;53.220;6.528;2023-06-24T02:05:21;14.60;99.90
52965;DHT22;42923;53.220;6.528;2023-06-24T02:07:49;14.60;99.90
52965;DHT22;42923;53.220;6.528;2023-06-24T02:10:19;14.60;99.90
52965;DHT22;42923;53.220;6.528;2023-06-24T02:12:47;14.50;99.90
52965;DHT22;42923;53.220;6.528;2023-06-24T02:15:14;14.50;99.90
52965;DHT22;42923;53.220;6.528;2023-06-24T02:17:41;14.50;99.90
52965;DHT22;42923;53.220;6.528;2023-06-24T02:20:08;14.50;99.90
52965;DHT22;42923;53.220;6.528;2023-06-24T02:22:38;14.40;99.90
52965;DHT22;42923;53.220;6.528;2023-06-24T02:25:06;14.40;99.90
52965;DHT22;42923;53.220;6.528;2023-06-24T02:27:33;14.40;99.90
52965;DHT22;42923;53.220;6.528;2023-06-24T02:30:01;14.40;99.90
52965;DHT22;42923;53.220;6.528;2023-06-24T02:32:29;14.40;99.90
52965;DHT22;42923;53.220;6.528;2023-06-24T02:34:56;14.30;99.90
52965;DHT22;42923;53.220;6.528;2023-06-24T02:37:22;14.30;99.90
52965;DHT22;42923;53.220;6.528;2023-06-24T02:39:48;14.30;99.90
52965;DHT22;42923;53.220;6.528;2023-06-24T02:42:14;14.30;99.90
52965;DHT22;42923;53.220;6.528;2023-06-24T02:44:40;14.30;99.90
52965;DHT22;42923;53.220;6.528;2023-06-24T02:47:09;14.20;99.90
52965;DHT22;42923;53.220;6.528;2023-06-24T02:49:37;14.30;99.90
52965;DHT22;42923;53.220;6.528;2023-06-24T02:52:05;14.20;99.90
52965;DHT22;42923;53.220;6.528;2023-06-24T02:54:33;14.20;99.90
52965;DHT22;42923;53.220;6.528;2023-06-24T02:57:20;14.20;99.90
52965;DHT22;42923;53.220;6.528;2023-06-24T03:00:12;14.20;99.90
52965;DHT22;42923;53.220;6.528;2023-06-24T03:03:00;14.20;99.90
52965;DHT22;42923;53.220;6.528;2023-06-24T03:05:26;14.20;99.90
52965;DHT22;42923;53.220;6.528;2023-06-24T03:07:54;14.20;99.90
52965;DHT22;42923;53.220;6.528;2023-06-24T03:10:23;14.20;99.90
52965;DHT22;42923;53.220;6.528;2023-06-24T03:12:50;14.20;99.90
52965;DHT22;42923;53.220;6.528;2023-06-24T03:15:16;14.20;99.90
52965;DHT22;42923;53.220;6.528;2023-06-24T03:17:41;14.20;99.90
52965;DHT22;42923;53.220;6.528;2023-06-24T03:20:07;14.20;99.90
52965;DHT22;42923;53.220;6.528;2023-06-24T03:22:34;14.10;99.90
52965;DHT22;42923;53.220;6.528;2023-06-24T03:25:01;14.10;99.90
52965;DHT22;42923;53.220;6.528;2023-06-24T03:27:27;14.10;99.90
52965;DHT22;42923;53.220;6.528;2023-06-24T03:29:53;14.10;99.90
52965;DHT22;42923;53.220;6.528;2023-06-24T03:32:19;14.10;99.90
52965;DHT22;42923;53.220;6.528;2023-06-24T03:34:46;14.10;99.90
52965;DHT22;42923;53.220;6.528;2023-06-24T03:37:12;14.10;99.90
52965;DHT22;42923;53.220;6.528;2023-06-24T03:39:40;14.10;99.90
52965;DHT22;42923;53.220;6.528;2023-06-24T03:42:06;14.20;99.90
52965;DHT22;42923;53.220;6.528;2023-06-24T03:44:32;14.20;99.90
52965;DHT22;42923;53.220;6.528;2023-06-24T03:46:58;14.20;99.90
52965;DHT22;42923;53.220;6.528;2023-06-24T03:49:24;14.30;99.90
52965;DHT22;42923;53.220;6.528;2023-06-24T03:51:50;14.30;99.90
52965;DHT22;42923;53.220;6.528;2023-06-24T03:54:15;14.30;99.90
52965;DHT22;42923;53.220;6.528;2023-06-24T03:56:41;14.30;99.90
52965;DHT22;42923;53.220;6.528;2023-06-24T03:59:07;14.30;99.90
52965;DHT22;42923;53.220;6.528;2023-06-24T04:01:33;14.30;99.90
52965;DHT22;42923;53.220;6.528;2023-06-24T04:03:59;14.30;99.90
52965;DHT22;42923;53.220;6.528;2023-06-24T04:06:25;14.30;99.90
52965;DHT22;42923;53.220;6.528;2023-06-24T04:08:52;14.40;99.90
52965;DHT22;42923;53.220;6.528;2023-06-24T04:11:19;14.40;99.90
52965;DHT22;42923;53.220;6.528;2023-06-24T04:13:45;14.50;99.90
52965;DHT22;42923;53.220;6.528;2023-06-24T04:16:11;14.50;99.90
52965;DHT22;42923;53.220;6.528;2023-06-24T04:18:37;14.50;99.90
52965;DHT22;42923;53.220;6.528;2023-06-24T04:21:06;14.60;99.90
52965;DHT22;42923;53.220;6.528;2023-06-24T04:23:32;14.60;99.90
52965;DHT22;42923;53.220;6.528;2023-06-24T04:25:58;14.70;99.90
52965;DHT22;42923;53.220;6.528;2023-06-24T04:28:24;14.70;99.90
52965;DHT22;42923;53.220;6.528;2023-06-24T04:30:51;14.80;99.90
52965;DHT22;42923;53.220;6.528;2023-06-24T04:33:16;14.90;99.90
52965;DHT22;42923;53.220;6.528;2023-06-24T04:35:43;15.00;99.90
52965;DHT22;42923;53.220;6.528;2023-06-24T04:38:10;15.10;99.90
52965;DHT22;42923;53.220;6.528;2023-06-24T04:40:36;15.20;99.90
52965;DHT22;42923;53.220;6.528;2023-06-24T04:43:02;15.30;99.90
52965;DHT22;42923;53.220;6.528;2023-06-24T04:45:28;15.40;99.90
52965;DHT22;42923;53.220;6.528;2023-06-24T04:47:54;15.50;99.90
52965;DHT22;42923;53.220;6.528;2023-06-24T04:50:19;15.60;99.90
52965;DHT22;42923;53.220;6.528;2023-06-24T04:52:45;15.70;99.90
52965;DHT22;42923;53.220;6.528;2023-06-24T04:55:11;15.70;99.90
52965;DHT22;42923;53.220;6.528;2023-06-24T04:57:37;15.70;99.90
52965;DHT22;42923;53.220;6.528;2023-06-24T05:00:03;15.80;99.90
52965;DHT22;42923;53.220;6.528;2023-06-24T05:02:30;15.80;99.90
52965;DHT22;42923;53.220;6.528;2023-06-24T05:04:55;15.90;99.90
52965;DHT22;42923;53.220;6.528;2023-06-24T05:07:22;16.00;99.90
52965;DHT22;42923;53.220;6.528;2023-06-24T05:09:48;16.00;99.90
52965;DHT22;42923;53.220;6.528;2023-06-24T05:12:14;16.10;99.90
52965;DHT22;42923;53.220;6.528;2023-06-24T05:14:40;16.20;99.90
52965;DHT22;42923;53.220;6.528;2023-06-24T05:17:06;16.30;99.90
52965;DHT22;42923;53.220;6.528;2023-06-24T05:19:32;16.40;99.90
52965;DHT22;42923;53.220;6.528;2023-06-24T05:21:58;16.40;99.90
52965;DHT22;42923;53.220;6.528;2023-06-24T05:24:24;16.60;99.90
52965;DHT22;42923;53.220;6.528;2023-06-24T05:26:50;16.50;99.90
52965;DHT22;42923;53.220;6.528;2023-06-24T05:29:17;16.60;99.90
52965;DHT22;42923;53.220;6.528;2023-06-24T05:31:44;16.60;99.90
52965;DHT22;42923;53.220;6.528;2023-06-24T05:34:09;16.70;99.90
52965;DHT22;42923;53.220;6.528;2023-06-24T05:36:35;16.80;99.90
52965;DHT22;42923;53.220;6.528;2023-06-24T05:39:01;16.90;99.90
52965;DHT22;42923;53.220;6.528;2023-06-24T05:41:27;17.10;99.90
52965;DHT22;42923;53.220;6.528;2023-06-24T05:44:07;17.10;99.90
52965;DHT22;42923;53.220;6.528;2023-06-24T05:46:33;17.20;99.90
52965;DHT22;42923;53.220;6.528;2023-06-24T05:48:59;17.40;99.90
52965;DHT22;42923;53.220;6.528;2023-06-24T05:51:24;17.40;99.90
52965;DHT22;42923;53.220;6.528;2023-06-24T05:53:50;17.60;99.90
52965;DHT22;42923;53.220;6.528;2023-06-24T05:56:16;17.70;99.90
52965;DHT22;42923;53.220;6.528;2023-06-24T05:58:42;17.80;99.90
52965;DHT22;42923;53.220;6.528;2023-06-24T06:01:09;17.90;99.90
52965;DHT22;42923;53.220;6.528;2023-06-24T06:03:35;17.90;99.90
52965;DHT22;42923;53.220;6.528;2023-06-24T06:06:01;18.00;99.90
52965;DHT22;42923;53.220;6.528;2023-06-24T06:08:27;18.10;99.90
52965;DHT22;42923;53.220;6.528;2023-06-24T06:10:52;18.30;99.90
52965;DHT22;42923;53.220;6.528;2023-06-24T06:13:18;18.40;99.90
52965;DHT22;42923;53.220;6.528;2023-06-24T06:15:44;18.60;99.90
52965;DHT22;42923;53.220;6.528;2023-06-24T06:18:10;18.70;99.90
52965;DHT22;42923;53.220;6.528;2023-06-24T06:20:35;18.90;99.90
52965;DHT22;42923;53.220;6.528;2023-06-24T06:23:01;19.20;99.90
52965;DHT22;42923;53.220;6.528;2023-06-24T06:25:27;19.50;99.90
52965;DHT22;42923;53.220;6.528;2023-06-24T06:27:53;19.70;99.90
52965;DHT22;42923;53.220;6.528;2023-06-24T06:30:18;19.90;99.90
52965;DHT22;42923;53.220;6.528;2023-06-24T06:32:44;20.10;99.90
52965;DHT22;42923;53.220;6.528;2023-06-24T06:35:10;20.20;99.90
52965;DHT22;42923;53.220;6.528;2023-06-24T06:37:36;20.40;99.90
52965;DHT22;42923;53.220;6.528;2023-06-24T06:40:02;20.50;99.90
52965;DHT22;42923;53.220;6.528;2023-06-24T06:42:29;20.70;99.90
52965;DHT22;42923;53.220;6.528;2023-06-24T06:44:55;20.80;99.90
52965;DHT22;42923;53.220;6.528;2023-06-24T06:47:20;21.00;99.90
52965;DHT22;42923;53.220;6.528;2023-06-24T06:49:46;21.20;99.90
52965;DHT22;42923;53.220;6.528;2023-06-24T06:52:12;21.30;99.90
52965;DHT22;42923;53.220;6.528;2023-06-24T06:54:38;21.50;99.90
52965;DHT22;42923;53.220;6.528;2023-06-24T06:57:04;21.70;99.90
52965;DHT22;42923;53.220;6.528;2023-06-24T06:59:31;21.80;99.90
52965;DHT22;42923;53.220;6.528;2023-06-24T07:01:57;21.90;99.90
52965;DHT22;42923;53.220;6.528;2023-06-24T07:04:23;22.10;99.90
52965;DHT22;42923;53.220;6.528;2023-06-24T07:06:49;22.20;99.90
52965;DHT22;42923;53.220;6.528;2023-06-24T07:09:14;22.40;99.90
52965;DHT22;42923;53.220;6.528;2023-06-24T07:11:41;22.60;99.90
52965;DHT22;42923;53.220;6.528;2023-06-24T07:14:07;22.70;99.90
52965;DHT22;42923;53.220;6.528;2023-06-24T07:16:33;22.70;99.90
52965;DHT22;42923;53.220;6.528;2023-06-24T07:18:59;22.80;99.90
52965;DHT22;42923;53.220;6.528;2023-06-24T07:21:24;22.90;99.90
52965;DHT22;42923;53.220;6.528;2023-06-24T07:23:50;22.90;99.90
52965;DHT22;42923;53.220;6.528;2023-06-24T07:26:16;23.00;99.90
52965;DHT22;42923;53.220;6.528;2023-06-24T07:28:41;23.10;99.90
52965;DHT22;42923;53.220;6.528;2023-06-24T07:31:07;23.20;99.90
52965;DHT22;42923;53.220;6.528;2023-06-24T07:33:33;23.30;99.90
52965;DHT22;42923;53.220;6.528;2023-06-24T07:35:59;23.40;99.90
52965;DHT22;42923;53.220;6.528;2023-06-24T07:38:25;23.60;99.90
52965;DHT22;42923;53.220;6.528;2023-06-24T07:40:51;23.70;99.90
52965;DHT22;42923;53.220;6.528;2023-06-24T07:43:16;23.90;99.90
52965;DHT22;42923;53.220;6.528;2023-06-24T07:45:43;24.10;99.90
52965;DHT22;42923;53.220;6.528;2023-06-24T07:48:09;24.40;99.90
52965;DHT22;42923;53.220;6.528;2023-06-24T07:50:35;24.60;99.90
52965;DHT22;42923;53.220;6.528;2023-06-24T07:53:02;24.70;99.90
52965;DHT22;42923;53.220;6.528;2023-06-24T07:55:28;24.80;99.90
52965;DHT22;42923;53.220;6.528;2023-06-24T07:57:53;24.90;99.90
52965;DHT22;42923;53.220;6.528;2023-06-24T08:00:19;25.10;99.90
52965;DHT22;42923;53.220;6.528;2023-06-24T08:02:45;25.20;99.90
52965;DHT22;42923;53.220;6.528;2023-06-24T08:05:11;25.30;99.90
52965;DHT22;42923;53.220;6.528;2023-06-24T08:07:37;25.40;99.90
52965;DHT22;42923;53.220;6.528;2023-06-24T08:10:04;25.60;99.90
52965;DHT22;42923;53.220;6.528;2023-06-24T08:12:31;25.90;99.90
52965;DHT22;42923;53.220;6.528;2023-06-24T08:14:56;26.00;99.90
52965;DHT22;42923;53.220;6.528;2023-06-24T08:17:22;26.00;99.90
52965;DHT22;42923;53.220;6.528;2023-06-24T08:19:48;26.00;99.90
52965;DHT22;42923;53.220;6.528;2023-06-24T08:22:14;26.00;99.90
52965;DHT22;42923;53.220;6.528;2023-06-24T08:24:40;26.00;99.90
52965;DHT22;42923;53.220;6.528;2023-06-24T08:27:06;26.10;99.90
52965;DHT22;42923;53.220;6.528;2023-06-24T08:29:32;26.10;99.90
52965;DHT22;42923;53.220;6.528;2023-06-24T08:31:57;26.00;99.90
52965;DHT22;42923;53.220;6.528;2023-06-24T08:34:23;25.90;99.90
52965;DHT22;42923;53.220;6.528;2023-06-24T08:36:49;26.00;99.90
52965;DHT22;42923;53.220;6.528;2023-06-24T08:39:15;26.10;99.90
52965;DHT22;42923;53.220;6.528;2023-06-24T08:41:40;26.20;99.90
52965;DHT22;42923;53.220;6.528;2023-06-24T08:44:06;26.50;99.90
52965;DHT22;42923;53.220;6.528;2023-06-24T08:46:32;26.60;99.90
52965;DHT22;42923;53.220;6.528;2023-06-24T08:49:23;26.80;99.90
52965;DHT22;42923;53.220;6.528;2023-06-24T08:52:03;26.80;99.90
52965;DHT22;42923;53.220;6.528;2023-06-24T08:54:30;26.60;99.90
52965;DHT22;42923;53.220;6.528;2023-06-24T08:56:57;26.50;99.90
52965;DHT22;42923;53.220;6.528;2023-06-24T08:59:25;26.30;99.90
52965;DHT22;42923;53.220;6.528;2023-06-24T09:01:51;26.30;99.90
52965;DHT22;42923;53.220;6.528;2023-06-24T09:04:17;26.30;99.90
52965;DHT22;42923;53.220;6.528;2023-06-24T09:06:43;26.40;99.90
52965;DHT22;42923;53.220;6.528;2023-06-24T09:09:19;26.50;99.90
52965;DHT22;42923;53.220;6.528;2023-06-24T09:11:55;26.60;99.90
52965;DHT22;42923;53.220;6.528;2023-06-24T09:14:22;26.60;99.90
52965;DHT22;42923;53.220;6.528;2023-06-24T09:19:23;26.60;99.90
52965;DHT22;42923;53.220;6.528;2023-06-24T09:21:50;26.50;99.90
52965;DHT22;42923;53.220;6.528;2023-06-24T09:24:18;26.40;99.90
52965;DHT22;42923;53.220;6.528;2023-06-24T09:26:44;26.30;99.90
52965;DHT22;42923;53.220;6.528;2023-06-24T09:29:13;26.30;99.90
52965;DHT22;42923;53.220;6.528;2023-06-24T09:31:50;26.40;99.90
52965;DHT22;42923;53.220;6.528;2023-06-24T09:34:18;26.60;99.90
52965;DHT22;42923;53.220;6.528;2023-06-24T09:36:50;26.70;99.90
52965;DHT22;42923;53.220;6.528;2023-06-24T09:39:16;26.90;99.90
52965;DHT22;42923;53.220;6.528;2023-06-24T09:41:42;27.00;99.90
52965;DHT22;42923;53.220;6.528;2023-06-24T09:44:10;27.00;99.90
52965;DHT22;42923;53.220;6.528;2023-06-24T09:46:39;27.10;99.90
52965;DHT22;42923;53.220;6.528;2023-06-24T09:49:06;27.20;99.90
52965;DHT22;42923;53.220;6.528;2023-06-24T09:51:40;27.20;99.90
52965;DHT22;42923;53.220;6.528;2023-06-24T09:54:08;27.10;99.90
52965;DHT22;42923;53.220;6.528;2023-06-24T09:56:36;27.00;99.90
52965;DHT22;42923;53.220;6.528;2023-06-24T09:59:05;26.90;99.90
52965;DHT22;42923;53.220;6.528;2023-06-24T10:01:44;26.90;99.90
52965;DHT22;42923;53.220;6.528;2023-06-24T10:04:17;27.00;99.90
52965;DHT22;42923;53.220;6.528;2023-06-24T10:06:44;27.00;99.90
52965;DHT22;42923;53.220;6.528;2023-06-24T10:09:10;27.10;99.90
52965;DHT22;42923;53.220;6.528;2023-06-24T10:11:41;27.30;99.90
52965;DHT22;42923;53.220;6.528;2023-06-24T10:14:07;27.50;99.90
52965;DHT22;42923;53.220;6.528;2023-06-24T10:16:33;27.80;99.90
52965;DHT22;42923;53.220;6.528;2023-06-24T10:19:03;28.20;99.90
52965;DHT22;42923;53.220;6.528;2023-06-24T10:21:52;28.40;99.90
52965;DHT22;42923;53.220;6.528;2023-06-24T10:24:47;28.60;99.90
52965;DHT22;42923;53.220;6.528;2023-06-24T10:27:15;28.90;99.40
52965;DHT22;42923;53.220;6.528;2023-06-24T10:29:46;29.20;96.50
52965;DHT22;42923;53.220;6.528;2023-06-24T10:32:12;29.40;93.70
52965;DHT22;42923;53.220;6.528;2023-06-24T10:37:04;29.70;92.00
52965;DHT22;42923;53.220;6.528;2023-06-24T10:39:56;29.80;90.60
52965;DHT22;42923;53.220;6.528;2023-06-24T10:45:13;30.30;85.80
52965;DHT22;42923;53.220;6.528;2023-06-24T10:50:14;30.40;83.00
52965;DHT22;42923;53.220;6.528;2023-06-24T10:52:42;30.40;83.60
52965;DHT22;42923;53.220;6.528;2023-06-24T10:55:09;30.30;80.40
52965;DHT22;42923;53.220;6.528;2023-06-24T10:57:36;30.30;83.10
52965;DHT22;42923;53.220;6.528;2023-06-24T11:00:03;30.40;83.50
52965;DHT22;42923;53.220;6.528;2023-06-24T11:02:29;30.70;80.80
52965;DHT22;42923;53.220;6.528;2023-06-24T11:04:56;31.00;80.00
52965;DHT22;42923;53.220;6.528;2023-06-24T11:07:33;31.00;79.60
52965;DHT22;42923;53.220;6.528;2023-06-24T11:10:08;31.20;82.10
52965;DHT22;42923;53.220;6.528;2023-06-24T11:12:35;31.40;79.10
52965;DHT22;42923;53.220;6.528;2023-06-24T11:15:06;31.40;78.50
52965;DHT22;42923;53.220;6.528;2023-06-24T11:17:33;31.60;78.30
52965;DHT22;42923;53.220;6.528;2023-06-24T11:20:00;31.80;76.70
52965;DHT22;42923;53.220;6.528;2023-06-24T11:22:26;32.00;75.90
52965;DHT22;42923;53.220;6.528;2023-06-24T11:24:55;32.20;76.40
52965;DHT22;42923;53.220;6.528;2023-06-24T11:27:29;32.40;74.30
52965;DHT22;42923;53.220;6.528;2023-06-24T11:29:59;32.30;73.20
52965;DHT22;42923;53.220;6.528;2023-06-24T11:32:38;31.90;71.50
52965;DHT22;42923;53.220;6.528;2023-06-24T11:35:05;31.40;72.60
52965;DHT22;42923;53.220;6.528;2023-06-24T11:37:32;31.30;72.90
52965;DHT22;42923;53.220;6.528;2023-06-24T11:40:08;31.60;73.80
52965;DHT22;42923;53.220;6.528;2023-06-24T11:42:39;31.90;73.80
52965;DHT22;42923;53.220;6.528;2023-06-24T11:45:07;32.20;73.30
52965;DHT22;42923;53.220;6.528;2023-06-24T11:47:35;32.30;72.30
52965;DHT22;42923;53.220;6.528;2023-06-24T11:50:04;32.50;72.80
52965;DHT22;42923;53.220;6.528;2023-06-24T11:52:48;32.40;71.20
52965;DHT22;42923;53.220;6.528;2023-06-24T11:55:18;32.50;73.20
52965;DHT22;42923;53.220;6.528;2023-06-24T11:58:00;32.70;70.80
52965;DHT22;42923;53.220;6.528;2023-06-24T12:00:35;32.80;69.90
52965;DHT22;42923;53.220;6.528;2023-06-24T12:03:02;32.70;67.40
52965;DHT22;42923;53.220;6.528;2023-06-24T12:05:32;32.70;67.10
52965;DHT22;42923;53.220;6.528;2023-06-24T12:08:00;32.40;67.40
52965;DHT22;42923;53.220;6.528;2023-06-24T12:10:27;32.10;67.80
52965;DHT22;42923;53.220;6.528;2023-06-24T12:12:55;32.20;67.10
52965;DHT22;42923;53.220;6.528;2023-06-24T12:15:21;32.30;68.10
52965;DHT22;42923;53.220;6.528;2023-06-24T12:17:47;32.50;67.90
52965;DHT22;42923;53.220;6.528;2023-06-24T12:20:14;32.70;66.40
52965;DHT22;42923;53.220;6.528;2023-06-24T12:22:41;32.60;68.70
52965;DHT22;42923;53.220;6.528;2023-06-24T12:25:07;32.60;67.10
52965;DHT22;42923;53.220;6.528;2023-06-24T12:27:33;32.80;66.90
52965;DHT22;42923;53.220;6.528;2023-06-24T12:29:59;32.80;66.10
52965;DHT22;42923;53.220;6.528;2023-06-24T12:32:26;32.40;64.90
52965;DHT22;42923;53.220;6.528;2023-06-24T12:34:52;32.00;64.90
52965;DHT22;42923;53.220;6.528;2023-06-24T12:37:18;32.00;65.20
52965;DHT22;42923;53.220;6.528;2023-06-24T12:39:45;32.30;67.10
52965;DHT22;42923;53.220;6.528;2023-06-24T12:42:12;32.30;64.90
52965;DHT22;42923;53.220;6.528;2023-06-24T12:44:38;32.00;64.90
52965;DHT22;42923;53.220;6.528;2023-06-24T12:47:04;31.60;65.00
52965;DHT22;42923;53.220;6.528;2023-06-24T12:49:29;31.30;64.80
52965;DHT22;42923;53.220;6.528;2023-06-24T12:51:55;31.00;65.80
52965;DHT22;42923;53.220;6.528;2023-06-24T12:54:21;31.10;66.50
52965;DHT22;42923;53.220;6.528;2023-06-24T12:56:46;31.20;66.60
52965;DHT22;42923;53.220;6.528;2023-06-24T12:59:12;31.40;66.10
52965;DHT22;42923;53.220;6.528;2023-06-24T13:01:38;31.80;67.00
52965;DHT22;42923;53.220;6.528;2023-06-24T13:04:04;32.30;67.40
52965;DHT22;42923;53.220;6.528;2023-06-24T13:06:29;32.90;65.70
52965;DHT22;42923;53.220;6.528;2023-06-24T13:08:55;33.30;65.00
52965;DHT22;42923;53.220;6.528;2023-06-24T13:11:21;33.60;64.60
52965;DHT22;42923;53.220;6.528;2023-06-24T13:13:47;33.90;64.40
52965;DHT22;42923;53.220;6.528;2023-06-24T13:16:13;34.20;64.10
52965;DHT22;42923;53.220;6.528;2023-06-24T13:18:39;34.00;63.90
52965;DHT22;42923;53.220;6.528;2023-06-24T13:21:05;33.70;63.20
52965;DHT22;42923;53.220;6.528;2023-06-24T13:23:31;33.50;65.30
52965;DHT22;42923;53.220;6.528;2023-06-24T13:25:57;33.40;63.90
52965;DHT22;42923;53.220;6.528;2023-06-24T13:28:23;33.20;64.40
52965;DHT22;42923;53.220;6.528;2023-06-24T13:30:48;32.80;64.10
52965;DHT22;42923;53.220;6.528;2023-06-24T13:33:15;32.30;64.10
52965;DHT22;42923;53.220;6.528;2023-06-24T13:35:41;31.80;66.20
52965;DHT22;42923;53.220;6.528;2023-06-24T13:38:07;31.40;67.00
52965;DHT22;42923;53.220;6.528;2023-06-24T13:40:33;31.00;67.20
52965;DHT22;42923;53.220;6.528;2023-06-24T13:42:59;30.70;65.90
52965;DHT22;42923;53.220;6.528;2023-06-24T13:45:25;30.80;67.50
52965;DHT22;42923;53.220;6.528;2023-06-24T13:47:51;31.30;66.90
52965;DHT22;42923;53.220;6.528;2023-06-24T13:50:17;31.50;66.40
52965;DHT22;42923;53.220;6.528;2023-06-24T13:52:42;31.40;65.90
52965;DHT22;42923;53.220;6.528;2023-06-24T13:55:08;31.30;66.20
52965;DHT22;42923;53.220;6.528;2023-06-24T13:57:34;31.20;66.10
52965;DHT22;42923;53.220;6.528;2023-06-24T14:00:00;31.00;66.20
52965;DHT22;42923;53.220;6.528;2023-06-24T14:02:25;31.00;66.50
52965;DHT22;42923;53.220;6.528;2023-06-24T14:04:51;31.00;68.10
52965;DHT22;42923;53.220;6.528;2023-06-24T14:07:17;31.10;69.70
52965;DHT22;42923;53.220;6.528;2023-06-24T14:09:43;31.20;68.00
52965;DHT22;42923;53.220;6.528;2023-06-24T14:12:09;31.10;67.10
52965;DHT22;42923;53.220;6.528;2023-06-24T14:14:35;30.70;67.30
52965;DHT22;42923;53.220;6.528;2023-06-24T14:17:02;30.50;67.50
52965;DHT22;42923;53.220;6.528;2023-06-24T14:19:28;30.30;67.60
52965;DHT22;42923;53.220;6.528;2023-06-24T14:21:55;30.00;67.40
52965;DHT22;42923;53.220;6.528;2023-06-24T14:24:20;29.80;67.90
52965;DHT22;42923;53.220;6.528;2023-06-24T14:26:46;29.70;67.50
52965;DHT22;42923;53.220;6.528;2023-06-24T14:29:15;29.50;67.90
52965;DHT22;42923;53.220;6.528;2023-06-24T14:31:41;29.30;68.30
52965;DHT22;42923;53.220;6.528;2023-06-24T14:34:06;29.20;68.90
52965;DHT22;42923;53.220;6.528;2023-06-24T14:36:32;29.30;69.80
52965;DHT22;42923;53.220;6.528;2023-06-24T14:38:58;29.60;70.00
52965;DHT22;42923;53.220;6.528;2023-06-24T14:41:24;29.90;70.00
52965;DHT22;42923;53.220;6.528;2023-06-24T14:43:50;30.20;69.70
52965;DHT22;42923;53.220;6.528;2023-06-24T14:46:16;30.50;69.60
52965;DHT22;42923;53.220;6.528;2023-06-24T14:48:41;30.70;70.10
52965;DHT22;42923;53.220;6.528;2023-06-24T14:51:07;31.30;69.70
52965;DHT22;42923;53.220;6.528;2023-06-24T14:53:33;31.70;68.80
52965;DHT22;42923;53.220;6.528;2023-06-24T14:55:59;32.10;69.40
52965;DHT22;42923;53.220;6.528;2023-06-24T14:58:25;32.40;68.10
52965;DHT22;42923;53.220;6.528;2023-06-24T15:00:51;32.20;67.10
52965;DHT22;42923;53.220;6.528;2023-06-24T15:03:16;32.20;68.00
52965;DHT22;42923;53.220;6.528;2023-06-24T15:05:42;32.40;67.50
52965;DHT22;42923;53.220;6.528;2023-06-24T15:08:08;32.60;66.90
52965;DHT22;42923;53.220;6.528;2023-06-24T15:10:34;32.90;66.70
52965;DHT22;42923;53.220;6.528;2023-06-24T15:12:59;33.10;66.30
52965;DHT22;42923;53.220;6.528;2023-06-24T15:15:25;33.30;65.70
52965;DHT22;42923;53.220;6.528;2023-06-24T15:17:51;33.40;65.40
52965;DHT22;42923;53.220;6.528;2023-06-24T15:20:17;33.40;64.80
52965;DHT22;42923;53.220;6.528;2023-06-24T15:22:42;33.20;64.80
52965;DHT22;42923;53.220;6.528;2023-06-24T15:25:08;33.00;64.80
52965;DHT22;42923;53.220;6.528;2023-06-24T15:27:34;32.70;64.70
52965;DHT22;42923;53.220;6.528;2023-06-24T15:30:00;32.60;65.50
52965;DHT22;42923;53.220;6.528;2023-06-24T15:32:26;32.70;65.50
52965;DHT22;42923;53.220;6.528;2023-06-24T15:34:52;32.70;65.10
52965;DHT22;42923;53.220;6.528;2023-06-24T15:37:17;32.40;65.00
52965;DHT22;42923;53.220;6.528;2023-06-24T15:39:43;32.20;65.70
52965;DHT22;42923;53.220;6.528;2023-06-24T15:42:09;32.20;65.70
52965;DHT22;42923;53.220;6.528;2023-06-24T15:44:37;32.30;65.50
52965;DHT22;42923;53.220;6.528;2023-06-24T15:47:05;32.30;65.10
52965;DHT22;42923;53.220;6.528;2023-06-24T15:49:30;32.20;65.40
52965;DHT22;42923;53.220;6.528;2023-06-24T15:51:56;32.00;65.50
52965;DHT22;42923;53.220;6.528;2023-06-24T15:54:22;31.90;65.80
52965;DHT22;42923;53.220;6.528;2023-06-24T15:56:48;31.60;66.00
52965;DHT22;42923;53.220;6.528;2023-06-24T15:59:13;31.40;66.20
52965;DHT22;42923;53.220;6.528;2023-06-24T16:01:39;31.20;66.60
52965;DHT22;42923;53.220;6.528;2023-06-24T16:04:06;31.20;66.70